Time;durP1;ratioP1;P1;durP2;ratioP2;P2;SDS_P1;SDS_P2;PMS_P1;PMS_P2;Temp;Humidity;BMP_temperature;BMP_pressure;BME280_temperature;BME280_humidity;BME280_pressure;Samples;Min_cycle;Max_cycle;Signal;HPM_P1;HPM_P2
2022/10/30 00:00:26;;;;;;;52.40;40.38;;;;;;;;;;5122882;27;20023;-77
2022/10/30 00:02:51;;;;;;;41.58;33.25;;;;;;;;;;5125631;27;20038;-76
2022/10/30 00:05:17;;;;;;;34.00;28.65;;;;;;;;;;5113662;27;20023;-77
2022/10/30 00:07:42;;;;;;;38.25;31.55;;;;;;;;;;5125450;27;20023;-75
2022/10/30 00:10:08;;;;;;;34.75;30.70;;;;;;;;;;5116598;27;20080;-75
2022/10/30 00:12:33;;;;;;;30.13;24.30;;;;;;;;;;5115504;27;20033;-74
2022/10/30 00:14:58;;;;;;;28.33;24.08;;;;;;;;;;5125366;27;20027;-76
2022/10/30 00:17:24;;;;;;;24.67;21.98;;;;;;;;;;5124741;27;20378;-74
2022/10/30 00:19:49;;;;;;;27.42;22.98;;;;;;;;;;5124341;27;20380;-75
2022/10/30 00:22:15;;;;;;;30.88;25.98;;;;;;;;;;5124183;27;20048;-74
2022/10/30 00:24:40;;;;;;;28.02;23.42;;;;;;;;;;5124007;27;20024;-77
2022/10/30 00:27:05;;;;;;;30.90;25.58;;;;;;;;;;5120712;27;20027;-76
2022/10/30 00:29:31;;;;;;;32.42;28.35;;;;;;;;;;5111574;27;20023;-78
2022/10/30 00:31:56;;;;;;;46.60;38.85;;;;;;;;;;5123288;27;20038;-77
2022/10/30 00:34:22;;;;;;;43.65;35.33;;;;;;;;;;5123991;27;20453;-76
2022/10/30 00:36:47;;;;;;;35.97;31.85;;;;;;;;;;5125066;27;20023;-76
2022/10/30 00:39:12;;;;;;;38.67;30.48;;;;;;;;;;5122932;27;20038;-77
2022/10/30 00:41:40;;;;;;;34.85;26.90;;;;;;;;;;5121944;27;20673;-77
2022/10/30 00:44:24;;;;;;;24.05;20.98;;;;;;;;;;5113547;27;20026;-78
2022/10/30 00:46:49;;;;;;;28.10;23.60;;;;;;;;;;5124305;27;20024;-76
2022/10/30 00:49:15;;;;;;;31.83;26.02;;;;;;;;;;5123346;27;20136;-76
2022/10/30 00:51:42;;;;;;;39.08;30.20;;;;;;;;;;5123392;27;20051;-75
2022/10/30 00:54:07;;;;;;;65.72;44.20;;;;;;;;;;5120209;27;20015;-76
2022/10/30 00:56:33;;;;;;;48.60;33.10;;;;;;;;;;5115475;27;20085;-77
2022/10/30 00:59:03;;;;;;;95.55;57.95;;;;;;;;;;5112119;27;20066;-76
2022/10/30 01:01:31;;;;;;;64.47;48.03;;;;;;;;;;5116772;27;20035;-76
2022/10/30 01:03:57;;;;;;;44.80;35.22;;;;;;;;;;5116946;27;20051;-76
2022/10/30 01:06:23;;;;;;;39.30;32.22;;;;;;;;;;5116776;27;20071;-76
2022/10/30 01:08:49;;;;;;;75.05;55.95;;;;;;;;;;5115390;27;20031;-77
2022/10/30 01:11:15;;;;;;;67.38;51.67;;;;;;;;;;5111053;27;20023;-77
2022/10/30 01:13:41;;;;;;;29.70;24.52;;;;;;;;;;5109840;27;20019;-76
2022/10/30 01:16:06;;;;;;;28.88;24.00;;;;;;;;;;5106155;27;20342;-75
2022/10/30 01:18:41;;;;;;;22.92;19.90;;;;;;;;;;5115679;27;20039;-75
2022/10/30 01:21:10;;;;;;;23.20;19.98;;;;;;;;;;5118122;27;20051;-77
2022/10/30 01:23:56;;;;;;;29.10;23.57;;;;;;;;;;5119534;27;20026;-75
2022/10/30 01:26:27;;;;;;;20.13;18.02;;;;;;;;;;5073227;27;20089;-76
2022/10/30 01:29:01;;;;;;;23.25;19.33;;;;;;;;;;5113013;27;20028;-75
2022/10/30 01:31:33;;;;;;;22.38;19.00;;;;;;;;;;5119616;27;20019;-78
2022/10/30 01:34:19;;;;;;;28.77;25.30;;;;;;;;;;5107763;27;20338;-74
2022/10/30 01:37:04;;;;;;;31.13;27.25;;;;;;;;;;5105962;27;20035;-75
2022/10/30 01:39:34;;;;;;;29.20;25.92;;;;;;;;;;5097274;27;20392;-76
2022/10/30 01:42:07;;;;;;;29.17;25.88;;;;;;;;;;5117742;27;20070;-75
2022/10/30 01:44:32;;;;;;;30.17;24.50;;;;;;;;;;5116444;27;20434;-76
2022/10/30 01:47:00;;;;;;;26.80;23.92;;;;;;;;;;5115075;27;20024;-76
2022/10/30 01:49:44;;;;;;;30.88;27.30;;;;;;;;;;5118157;27;20385;-78
2022/10/30 01:52:16;;;;;;;43.97;31.45;;;;;;;;;;5110613;27;20488;-77
2022/10/30 01:54:44;;;;;;;36.28;30.70;;;;;;;;;;5116487;27;20038;-76
2022/10/30 01:57:20;;;;;;;77.55;56.40;;;;;;;;;;5104760;27;20015;-78
2022/10/30 02:00:05;;;;;;;100.32;72.97;;;;;;;;;;5111571;27;20531;-75
2022/10/30 02:02:31;;;;;;;78.75;62.00;;;;;;;;;;5120665;27;20035;-76
2022/10/30 02:04:57;;;;;;;45.80;40.95;;;;;;;;;;5120342;27;20030;-75
2022/10/30 02:07:22;;;;;;;27.38;23.90;;;;;;;;;;5121285;27;20346;-76
2022/10/30 02:09:49;;;;;;;29.02;25.98;;;;;;;;;;5123657;27;20828;-75
2022/10/30 02:12:15;;;;;;;28.38;25.27;;;;;;;;;;5121978;27;20069;-77
2022/10/30 02:14:42;;;;;;;27.00;24.27;;;;;;;;;;5107950;27;20047;-74
2022/10/30 02:17:08;;;;;;;32.33;28.98;;;;;;;;;;5116029;27;20062;-76
2022/10/30 02:19:34;;;;;;;29.60;26.23;;;;;;;;;;5098251;28;20035;-75
2022/10/30 02:21:59;;;;;;;30.23;27.15;;;;;;;;;;5105277;28;20100;-76
2022/10/30 02:24:25;;;;;;;30.27;26.63;;;;;;;;;;5122380;28;20494;-75
2022/10/30 02:26:50;;;;;;;39.13;28.63;;;;;;;;;;5123112;28;20106;-76
2022/10/30 02:29:19;;;;;;;32.08;28.73;;;;;;;;;;5123725;28;20041;-75
2022/10/30 02:31:44;;;;;;;40.53;32.55;;;;;;;;;;5104244;28;20384;-77
2022/10/30 02:34:10;;;;;;;38.08;30.88;;;;;;;;;;5118318;28;20083;-76
2022/10/30 02:36:35;;;;;;;32.75;29.15;;;;;;;;;;5114898;28;20034;-76
2022/10/30 02:39:01;;;;;;;43.03;32.90;;;;;;;;;;5122940;28;20023;-75
2022/10/30 02:41:26;;;;;;;43.00;33.28;;;;;;;;;;5123145;28;20031;-76
2022/10/30 02:43:52;;;;;;;38.30;29.92;;;;;;;;;;5122647;28;20027;-75
2022/10/30 02:46:18;;;;;;;37.83;30.38;;;;;;;;;;5123728;28;20026;-76
2022/10/30 02:48:43;;;;;;;39.42;32.72;;;;;;;;;;5122594;28;20031;-77
2022/10/30 02:51:08;;;;;;;40.35;30.50;;;;;;;;;;5122848;28;20379;-77
2022/10/30 02:53:34;;;;;;;35.65;29.33;;;;;;;;;;5121834;28;20109;-76
2022/10/30 02:56:09;;;;;;;41.20;32.63;;;;;;;;;;5122296;28;20042;-76
2022/10/30 02:58:35;;;;;;;42.50;32.00;;;;;;;;;;5121206;27;20542;-76
2022/10/30 03:01:06;;;;;;;45.90;31.02;;;;;;;;;;5125468;27;20102;-77
2022/10/30 03:03:32;;;;;;;38.55;27.83;;;;;;;;;;5125939;27;20426;-74
2022/10/30 03:05:59;;;;;;;44.25;32.38;;;;;;;;;;5125406;27;20015;-74
2022/10/30 03:08:24;;;;;;;45.55;35.63;;;;;;;;;;5123429;27;20529;-75
2022/10/30 03:10:50;;;;;;;45.25;33.22;;;;;;;;;;5125977;27;20165;-75
2022/10/30 03:13:15;;;;;;;41.88;33.75;;;;;;;;;;5125068;27;20019;-76
2022/10/30 03:15:40;;;;;;;38.95;28.52;;;;;;;;;;5126192;27;20026;-79
2022/10/30 03:18:06;;;;;;;36.45;29.48;;;;;;;;;;5123983;27;20053;-75
2022/10/30 03:20:31;;;;;;;38.65;29.65;;;;;;;;;;5114619;27;20058;-75
2022/10/30 03:22:56;;;;;;;38.53;31.10;;;;;;;;;;5126648;27;20012;-75
2022/10/30 03:25:22;;;;;;;40.15;31.90;;;;;;;;;;5125210;27;20460;-77
2022/10/30 03:27:47;;;;;;;38.33;31.98;;;;;;;;;;5126168;27;20460;-75
2022/10/30 03:30:13;;;;;;;42.40;37.75;;;;;;;;;;5121835;27;20022;-78
2022/10/30 03:32:38;;;;;;;37.70;32.00;;;;;;;;;;5125814;27;20031;-74
2022/10/30 03:35:04;;;;;;;40.28;32.70;;;;;;;;;;5124952;27;20027;-75
2022/10/30 03:37:29;;;;;;;36.35;31.33;;;;;;;;;;5114161;27;20107;-75
2022/10/30 03:39:54;;;;;;;45.88;31.63;;;;;;;;;;5122084;27;20019;-74
2022/10/30 03:42:20;;;;;;;37.35;30.35;;;;;;;;;;5125673;27;20100;-77
2022/10/30 03:44:45;;;;;;;41.85;33.15;;;;;;;;;;5122766;27;20076;-76
2022/10/30 03:47:10;;;;;;;45.38;34.40;;;;;;;;;;5123819;27;20304;-77
2022/10/30 03:49:36;;;;;;;41.97;33.60;;;;;;;;;;5125003;27;20050;-76
2022/10/30 03:52:01;;;;;;;33.33;27.08;;;;;;;;;;5124680;27;20030;-76
2022/10/30 03:54:26;;;;;;;36.13;30.73;;;;;;;;;;5122729;27;20031;-76
2022/10/30 03:56:52;;;;;;;34.47;30.73;;;;;;;;;;5125638;27;20066;-77
2022/10/30 03:59:17;;;;;;;35.33;29.05;;;;;;;;;;5121426;27;20042;-77
2022/10/30 04:01:42;;;;;;;34.42;28.08;;;;;;;;;;5124550;27;20027;-77
2022/10/30 04:04:07;;;;;;;33.63;28.65;;;;;;;;;;5124851;27;20031;-76
2022/10/30 04:06:33;;;;;;;37.55;31.60;;;;;;;;;;5125002;27;20080;-75
2022/10/30 04:08:58;;;;;;;34.00;29.77;;;;;;;;;;5125016;27;20044;-76
2022/10/30 04:11:23;;;;;;;33.05;28.38;;;;;;;;;;5123743;27;20037;-77
2022/10/30 04:13:49;;;;;;;32.25;28.50;;;;;;;;;;5124592;27;20350;-77
2022/10/30 04:16:14;;;;;;;36.78;32.03;;;;;;;;;;5124293;27;20377;-77
2022/10/30 04:18:39;;;;;;;33.40;29.83;;;;;;;;;;5124315;27;20382;-77
2022/10/30 04:21:05;;;;;;;34.13;30.42;;;;;;;;;;5124399;27;20021;-78
2022/10/30 04:23:30;;;;;;;36.10;30.25;;;;;;;;;;5123966;27;20115;-77
2022/10/30 04:25:58;;;;;;;33.15;29.48;;;;;;;;;;5124210;27;20106;-79
2022/10/30 04:28:24;;;;;;;32.17;26.73;;;;;;;;;;5124454;27;20034;-75
2022/10/30 04:30:49;;;;;;;31.65;26.45;;;;;;;;;;5124293;27;20440;-77
2022/10/30 04:33:14;;;;;;;35.20;30.10;;;;;;;;;;5124323;27;20032;-76
2022/10/30 04:35:40;;;;;;;34.40;28.70;;;;;;;;;;5123717;27;20031;-78
2022/10/30 04:38:06;;;;;;;34.80;30.95;;;;;;;;;;5125256;27;20023;-77
2022/10/30 04:40:33;;;;;;;32.95;28.38;;;;;;;;;;5121885;27;20038;-75
2022/10/30 04:42:59;;;;;;;32.10;28.33;;;;;;;;;;5123487;27;20011;-75
2022/10/30 04:45:24;;;;;;;33.25;29.65;;;;;;;;;;5124340;27;20023;-75
2022/10/30 04:47:50;;;;;;;35.13;31.33;;;;;;;;;;5123397;27;20034;-77
2022/10/30 04:50:16;;;;;;;32.15;28.55;;;;;;;;;;5123027;27;20016;-77
2022/10/30 04:52:41;;;;;;;29.67;26.42;;;;;;;;;;5121211;27;20085;-77
2022/10/30 04:55:08;;;;;;;30.10;26.90;;;;;;;;;;5123778;27;20023;-77
2022/10/30 04:57:35;;;;;;;31.83;27.38;;;;;;;;;;5124352;27;20448;-75
2022/10/30 05:00:01;;;;;;;29.58;26.17;;;;;;;;;;5122794;27;20433;-78
2022/10/30 05:02:26;;;;;;;34.17;30.63;;;;;;;;;;5122455;27;20023;-75
2022/10/30 05:04:52;;;;;;;28.70;25.65;;;;;;;;;;5117086;27;20376;-78
2022/10/30 05:07:17;;;;;;;28.48;24.58;;;;;;;;;;5106947;27;20034;-76
2022/10/30 05:09:43;;;;;;;25.90;23.17;;;;;;;;;;5093602;27;20034;-75
2022/10/30 05:12:09;;;;;;;35.05;29.33;;;;;;;;;;5107052;27;20462;-75
2022/10/30 05:14:34;;;;;;;38.80;31.73;;;;;;;;;;5105507;27;20019;-75
2022/10/30 05:16:59;;;;;;;30.50;25.50;;;;;;;;;;5109556;27;20400;-75
2022/10/30 05:19:25;;;;;;;28.67;22.88;;;;;;;;;;5109264;27;20534;-78
2022/10/30 05:21:50;;;;;;;26.40;23.40;;;;;;;;;;5104751;27;20566;-75
2022/10/30 05:24:16;;;;;;;27.90;21.85;;;;;;;;;;5104091;27;20590;-75
2022/10/30 05:26:41;;;;;;;19.38;17.42;;;;;;;;;;5102233;27;20027;-75
2022/10/30 05:29:06;;;;;;;16.50;14.80;;;;;;;;;;5115812;27;20481;-75
2022/10/30 05:31:32;;;;;;;20.02;18.02;;;;;;;;;;5123072;27;20019;-75
2022/10/30 05:33:57;;;;;;;17.27;15.25;;;;;;;;;;5121668;27;20039;-75
2022/10/30 05:36:22;;;;;;;37.92;31.30;;;;;;;;;;5120455;27;20022;-77
2022/10/30 05:38:48;;;;;;;35.80;29.63;;;;;;;;;;5102479;27;20411;-76
2022/10/30 05:41:13;;;;;;;28.20;24.58;;;;;;;;;;5112491;27;20034;-76
2022/10/30 05:43:38;;;;;;;20.75;17.98;;;;;;;;;;5122576;27;20081;-77
2022/10/30 05:46:04;;;;;;;24.67;21.48;;;;;;;;;;5123700;27;20134;-77
2022/10/30 05:48:29;;;;;;;22.02;19.65;;;;;;;;;;5123038;27;20118;-76
2022/10/30 05:50:55;;;;;;;27.23;20.75;;;;;;;;;;5123230;27;20019;-75
2022/10/30 05:53:20;;;;;;;35.15;31.42;;;;;;;;;;5104207;27;20031;-74
2022/10/30 05:55:46;;;;;;;20.10;18.10;;;;;;;;;;5122366;27;20075;-76
2022/10/30 05:58:11;;;;;;;20.85;17.92;;;;;;;;;;5117481;27;20461;-75
2022/10/30 06:00:39;;;;;;;48.30;38.67;;;;;;;;;;5117349;27;20497;-78
2022/10/30 06:03:05;;;;;;;91.25;72.78;;;;;;;;;;5119501;27;20370;-77
2022/10/30 06:05:32;;;;;;;102.82;83.50;;;;;;;;;;5121759;27;20026;-76
2022/10/30 06:07:57;;;;;;;148.88;110.85;;;;;;;;;;5123129;27;20031;-75
2022/10/30 06:10:23;;;;;;;173.45;136.95;;;;;;;;;;5123054;27;20023;-75
2022/10/30 06:12:52;;;;;;;121.35;92.60;;;;;;;;;;5123191;27;20027;-78
2022/10/30 06:15:18;;;;;;;98.63;76.22;;;;;;;;;;5112929;27;20030;-77
2022/10/30 06:17:43;;;;;;;83.60;68.03;;;;;;;;;;5119203;27;20055;-78
2022/10/30 06:20:09;;;;;;;87.70;74.68;;;;;;;;;;5121709;27;20015;-78
2022/10/30 06:22:34;;;;;;;143.20;127.28;;;;;;;;;;5121768;28;20403;-78
2022/10/30 06:24:59;;;;;;;40.75;36.33;;;;;;;;;;5106021;28;20019;-78
2022/10/30 06:27:24;;;;;;;32.97;29.42;;;;;;;;;;5106588;28;20039;-75
2022/10/30 06:29:53;;;;;;;78.70;64.72;;;;;;;;;;5107273;28;20043;-76
2022/10/30 06:32:19;;;;;;;47.95;42.80;;;;;;;;;;5107563;28;21008;-76
2022/10/30 06:34:44;;;;;;;72.35;61.88;;;;;;;;;;5107542;27;20027;-76
2022/10/30 06:37:10;;;;;;;84.50;69.65;;;;;;;;;;5109632;27;20031;-75
2022/10/30 06:39:35;;;;;;;83.68;74.47;;;;;;;;;;5113078;27;20079;-77
2022/10/30 06:42:00;;;;;;;81.75;71.38;;;;;;;;;;5111182;27;20547;-76
2022/10/30 06:44:26;;;;;;;78.78;68.40;;;;;;;;;;5111031;27;20043;-76
2022/10/30 06:46:52;;;;;;;81.47;68.55;;;;;;;;;;5111794;27;20346;-78
2022/10/30 06:49:17;;;;;;;59.65;47.30;;;;;;;;;;5112505;27;20019;-76
2022/10/30 06:51:43;;;;;;;26.08;23.27;;;;;;;;;;5113515;27;20940;-77
2022/10/30 06:54:08;;;;;;;16.77;15.00;;;;;;;;;;5117123;27;20019;-77
2022/10/30 06:56:33;;;;;;;103.05;85.50;;;;;;;;;;5112427;27;20438;-77
2022/10/30 06:58:59;;;;;;;44.42;39.55;;;;;;;;;;5114620;27;20838;-77
2022/10/30 07:01:24;;;;;;;29.75;26.38;;;;;;;;;;5112870;27;20019;-77
2022/10/30 07:03:49;;;;;;;24.98;22.45;;;;;;;;;;5113655;27;20023;-74
2022/10/30 07:06:15;;;;;;;26.00;23.30;;;;;;;;;;5125651;27;20030;-74
2022/10/30 07:08:40;;;;;;;26.60;23.77;;;;;;;;;;5097348;27;20035;-75
2022/10/30 07:11:05;;;;;;;31.35;24.58;;;;;;;;;;5117133;27;20331;-75
2022/10/30 07:13:31;;;;;;;24.38;21.13;;;;;;;;;;5112285;27;20405;-74
2022/10/30 07:15:57;;;;;;;85.05;49.22;;;;;;;;;;5092838;27;20031;-76
2022/10/30 07:18:23;;;;;;;119.75;74.72;;;;;;;;;;5111611;27;20052;-77
2022/10/30 07:20:52;;;;;;;115.75;79.82;;;;;;;;;;5110131;27;20407;-75
2022/10/30 07:23:17;;;;;;;60.47;42.63;;;;;;;;;;5110995;27;20051;-75
2022/10/30 07:25:43;;;;;;;46.97;40.05;;;;;;;;;;5110163;27;20069;-76
2022/10/30 07:28:08;;;;;;;20.50;17.38;;;;;;;;;;5110468;27;20049;-75
2022/10/30 07:30:33;;;;;;;18.33;15.50;;;;;;;;;;5092257;27;20038;-75
2022/10/30 07:33:01;;;;;;;15.18;13.70;;;;;;;;;;5110264;27;20019;-75
2022/10/30 07:35:27;;;;;;;14.23;12.75;;;;;;;;;;5108746;27;20075;-74
2022/10/30 07:37:52;;;;;;;12.77;11.50;;;;;;;;;;5110661;27;20379;-75
2022/10/30 07:40:17;;;;;;;11.55;10.45;;;;;;;;;;5109605;27;20034;-74
2022/10/30 07:42:43;;;;;;;28.90;25.85;;;;;;;;;;5110104;27;20020;-76
2022/10/30 07:45:08;;;;;;;13.00;9.98;;;;;;;;;;5125348;27;20134;-75
2022/10/30 07:47:37;;;;;;;44.78;31.92;;;;;;;;;;5123853;27;20031;-75
2022/10/30 07:50:03;;;;;;;17.92;11.05;;;;;;;;;;5113250;27;20107;-76
2022/10/30 07:52:30;;;;;;;13.70;11.20;;;;;;;;;;5122354;27;20099;-75
2022/10/30 07:54:55;;;;;;;16.98;12.98;;;;;;;;;;5125006;27;20030;-73
2022/10/30 07:57:21;;;;;;;13.70;12.10;;;;;;;;;;5124588;27;20091;-74
2022/10/30 07:59:46;;;;;;;15.30;12.25;;;;;;;;;;5119336;27;20027;-74
2022/10/30 08:02:11;;;;;;;11.45;7.90;;;;;;;;;;5108028;27;20027;-75
2022/10/30 08:04:36;;;;;;;10.40;7.65;;;;;;;;;;5109573;27;20023;-76
2022/10/30 08:07:02;;;;;;;11.77;7.78;;;;;;;;;;5109605;27;20029;-74
2022/10/30 08:09:27;;;;;;;8.95;7.05;;;;;;;;;;5110288;27;20038;-74
2022/10/30 08:11:52;;;;;;;9.60;8.57;;;;;;;;;;5109674;27;20027;-76
2022/10/30 08:14:18;;;;;;;11.38;8.07;;;;;;;;;;5110626;27;20136;-76
2022/10/30 08:16:43;;;;;;;10.68;6.55;;;;;;;;;;5109533;27;20047;-75
2022/10/30 08:19:09;;;;;;;7.78;6.43;;;;;;;;;;5093592;27;20050;-75
2022/10/30 08:21:34;;;;;;;8.57;6.35;;;;;;;;;;5109722;27;20019;-75
2022/10/30 08:23:59;;;;;;;7.63;6.35;;;;;;;;;;5110326;27;20019;-76
2022/10/30 08:26:25;;;;;;;7.25;6.22;;;;;;;;;;5111208;27;20331;-75
2022/10/30 08:28:50;;;;;;;7.32;6.15;;;;;;;;;;5110519;27;20065;-76
2022/10/30 08:31:16;;;;;;;7.40;6.60;;;;;;;;;;5110680;27;20065;-77
2022/10/30 08:33:41;;;;;;;9.18;6.57;;;;;;;;;;5109166;27;20027;-75
2022/10/30 08:36:07;;;;;;;7.75;6.13;;;;;;;;;;5110215;27;20172;-75
2022/10/30 08:38:32;;;;;;;9.18;5.57;;;;;;;;;;5109375;27;20424;-75
2022/10/30 08:40:58;;;;;;;8.07;5.70;;;;;;;;;;5110007;27;20019;-76
2022/10/30 08:43:25;;;;;;;5.90;5.30;;;;;;;;;;5089414;27;20425;-76
2022/10/30 08:45:50;;;;;;;12.20;6.20;;;;;;;;;;5108782;27;20031;-76
2022/10/30 08:48:16;;;;;;;10.20;5.70;;;;;;;;;;5106484;27;20287;-76
2022/10/30 08:50:42;;;;;;;17.10;10.90;;;;;;;;;;5109242;27;20023;-76
2022/10/30 08:53:09;;;;;;;7.45;6.18;;;;;;;;;;5109866;27;20047;-76
2022/10/30 08:55:34;;;;;;;7.05;5.75;;;;;;;;;;5110386;27;20465;-76
2022/10/30 08:58:00;;;;;;;8.02;6.57;;;;;;;;;;5109175;27;20062;-76
2022/10/30 09:00:26;;;;;;;9.57;7.70;;;;;;;;;;5123394;27;20071;-75
2022/10/30 09:02:51;;;;;;;10.63;7.20;;;;;;;;;;5123144;27;20046;-76
2022/10/30 09:05:17;;;;;;;7.10;6.40;;;;;;;;;;5104648;27;20054;-76
2022/10/30 09:07:42;;;;;;;9.00;6.70;;;;;;;;;;5123490;27;20038;-75
2022/10/30 09:10:07;;;;;;;14.25;10.27;;;;;;;;;;5122597;27;20038;-76
2022/10/30 09:12:33;;;;;;;14.52;11.13;;;;;;;;;;5122764;27;20019;-75
2022/10/30 09:14:58;;;;;;;17.13;15.25;;;;;;;;;;5122349;27;20054;-76
2022/10/30 09:17:24;;;;;;;7.95;7.13;;;;;;;;;;5120487;27;20122;-76
2022/10/30 09:19:49;;;;;;;10.07;6.40;;;;;;;;;;5124058;27;20343;-78
2022/10/30 09:22:15;;;;;;;9.90;5.90;;;;;;;;;;5124037;27;20118;-77
2022/10/30 09:24:40;;;;;;;7.40;5.78;;;;;;;;;;5124001;27;20055;-76
2022/10/30 09:27:06;;;;;;;7.75;5.97;;;;;;;;;;5123014;27;20430;-77
2022/10/30 09:29:31;;;;;;;7.65;5.78;;;;;;;;;;5123121;27;20043;-75
2022/10/30 09:31:57;;;;;;;7.22;5.57;;;;;;;;;;5123170;27;20022;-74
2022/10/30 09:34:23;;;;;;;9.18;6.10;;;;;;;;;;5121885;27;20498;-73
2022/10/30 09:36:48;;;;;;;130.90;112.15;;;;;;;;;;5123324;27;20510;-74
2022/10/30 09:39:14;;;;;;;60.58;44.88;;;;;;;;;;5121722;27;20060;-76
2022/10/30 09:41:58;;;;;;;16.83;13.98;;;;;;;;;;5122989;27;20060;-76
2022/10/30 09:44:29;;;;;;;66.53;58.30;;;;;;;;;;5121998;27;20442;-73
2022/10/30 09:46:57;;;;;;;29.20;25.98;;;;;;;;;;5113180;27;20047;-74
2022/10/30 09:49:43;;;;;;;10.50;9.20;;;;;;;;;;5108604;27;20035;-77
2022/10/30 09:52:28;;;;;;;7.85;6.25;;;;;;;;;;5106950;27;20042;-73
2022/10/30 09:55:12;;;;;;;7.20;6.50;;;;;;;;;;5122285;27;20042;-73
2022/10/30 09:57:43;;;;;;;6.15;5.40;;;;;;;;;;5121673;27;20027;-71
2022/10/30 10:00:10;;;;;;;6.90;4.95;;;;;;;;;;5112343;27;20016;-74
2022/10/30 10:02:37;;;;;;;6.35;5.13;;;;;;;;;;5117950;27;20045;-77
2022/10/30 10:05:16;;;;;;;5.57;4.80;;;;;;;;;;5122502;27;20064;-76
2022/10/30 10:07:43;;;;;;;6.93;5.30;;;;;;;;;;5122413;27;20103;-74
2022/10/30 10:10:16;;;;;;;9.32;5.45;;;;;;;;;;5119924;27;20035;-73
2022/10/30 10:12:45;;;;;;;9.60;6.15;;;;;;;;;;5122163;27;20109;-75
2022/10/30 10:15:31;;;;;;;8.43;5.80;;;;;;;;;;5102640;27;20347;-73
2022/10/30 10:17:57;;;;;;;8.38;5.78;;;;;;;;;;5120394;27;20047;-77
2022/10/30 10:20:27;;;;;;;6.35;5.18;;;;;;;;;;5120967;27;20127;-75
2022/10/30 10:22:53;;;;;;;5.97;5.38;;;;;;;;;;5122501;27;20442;-78
2022/10/30 10:25:19;;;;;;;7.03;6.25;;;;;;;;;;5115311;28;20038;-76
2022/10/30 10:27:44;;;;;;;8.70;5.85;;;;;;;;;;5112109;28;20027;-73
2022/10/30 10:30:13;;;;;;;7.93;6.07;;;;;;;;;;5112749;28;20023;-74
2022/10/30 10:32:59;;;;;;;6.10;5.40;;;;;;;;;;5108676;28;20016;-77
2022/10/30 10:35:43;;;;;;;6.95;5.55;;;;;;;;;;5117975;28;20031;-74
2022/10/30 10:38:08;;;;;;;11.60;10.55;;;;;;;;;;5110137;28;20019;-79
2022/10/30 10:40:40;;;;;;;6.55;5.63;;;;;;;;;;5113270;28;20042;-75
2022/10/30 10:43:24;;;;;;;6.45;5.80;;;;;;;;;;5118005;28;20031;-78
2022/10/30 10:45:52;;;;;;;7.15;5.75;;;;;;;;;;5120336;28;20035;-77
2022/10/30 10:48:32;;;;;;;5.55;5.03;;;;;;;;;;5117213;28;20023;-76
2022/10/30 10:50:59;;;;;;;13.38;10.88;;;;;;;;;;5108259;28;20061;-78
2022/10/30 10:53:45;;;;;;;6.03;4.78;;;;;;;;;;5112040;28;20052;-76
2022/10/30 10:56:11;;;;;;;5.53;4.28;;;;;;;;;;5121474;28;20461;-75
2022/10/30 10:58:50;;;;;;;5.45;4.90;;;;;;;;;;5108908;28;20031;-75
2022/10/30 11:01:15;;;;;;;;;;;;;;;;;;5108826;28;20023;-77
2022/10/30 11:04:02;;;;;;;8.43;4.70;;;;;;;;;;5116136;28;19954;-76
2022/10/30 11:06:33;;;;;;;6.00;5.40;;;;;;;;;;5121311;28;20058;-76
2022/10/30 11:09:11;;;;;;;7.53;5.40;;;;;;;;;;5120425;28;20569;-77
2022/10/30 11:11:37;;;;;;;6.38;5.40;;;;;;;;;;5121222;28;20088;-74
2022/10/30 11:14:07;;;;;;;8.23;5.47;;;;;;;;;;5119125;28;20068;-77
2022/10/30 11:16:37;;;;;;;6.53;4.97;;;;;;;;;;5121557;28;20022;-76
2022/10/30 11:19:03;;;;;;;6.70;5.28;;;;;;;;;;5108220;28;20058;-78
2022/10/30 11:21:34;;;;;;;7.55;6.38;;;;;;;;;;5106199;27;20082;-75
2022/10/30 11:23:59;;;;;;;6.38;5.35;;;;;;;;;;5114960;27;20458;-76
2022/10/30 11:26:26;;;;;;;6.97;5.90;;;;;;;;;;5117146;27;20033;-77
2022/10/30 11:28:52;;;;;;;7.30;6.22;;;;;;;;;;5125254;27;20088;-76
2022/10/30 11:31:18;;;;;;;9.25;5.88;;;;;;;;;;5126386;27;20027;-77
2022/10/30 11:33:43;;;;;;;6.72;5.72;;;;;;;;;;5125448;27;20046;-77
2022/10/30 11:36:09;;;;;;;6.95;5.35;;;;;;;;;;5125565;27;20110;-77
2022/10/30 11:38:34;;;;;;;8.23;6.55;;;;;;;;;;5117107;27;20061;-77
2022/10/30 11:41:00;;;;;;;8.63;6.10;;;;;;;;;;5109674;27;20099;-77
2022/10/30 11:43:26;;;;;;;7.55;6.10;;;;;;;;;;5117947;27;20098;-76
2022/10/30 11:45:52;;;;;;;7.72;6.05;;;;;;;;;;5110814;27;20023;-76
2022/10/30 11:48:31;;;;;;;8.88;6.10;;;;;;;;;;5109553;27;20027;-76
2022/10/30 11:50:56;;;;;;;;;;;;;;;;;;5109239;27;20031;-79
2022/10/30 11:53:24;;;;;;;9.13;5.90;;;;;;;;;;5110402;27;20022;-77
2022/10/30 11:55:50;;;;;;;7.10;5.80;;;;;;;;;;5111983;27;20019;-76
2022/10/30 11:58:44;;;;;;;8.15;6.10;;;;;;;;;;5126455;27;20027;-76
2022/10/30 12:01:13;;;;;;;6.95;5.88;;;;;;;;;;5095150;27;20043;-76
2022/10/30 12:03:39;;;;;;;6.43;5.80;;;;;;;;;;5125071;27;20034;-76
2022/10/30 12:06:07;;;;;;;7.40;6.22;;;;;;;;;;5123082;27;20062;-76
2022/10/30 12:08:33;;;;;;;7.97;6.35;;;;;;;;;;5121170;27;20118;-76
2022/10/30 12:11:00;;;;;;;7.90;6.05;;;;;;;;;;5113559;27;20114;-78
2022/10/30 12:13:25;;;;;;;6.43;5.57;;;;;;;;;;5112216;27;20076;-77
2022/10/30 12:16:13;;;;;;;8.25;6.18;;;;;;;;;;5122464;27;20027;-76
2022/10/30 12:18:39;;;;;;;7.70;6.32;;;;;;;;;;5119644;27;20127;-76
2022/10/30 12:21:04;;;;;;;7.05;6.35;;;;;;;;;;5107974;27;20467;-78
2022/10/30 12:23:30;;;;;;;7.32;6.30;;;;;;;;;;5109651;27;20019;-74
2022/10/30 12:26:08;;;;;;;7.22;5.97;;;;;;;;;;5109230;27;20106;-77
2022/10/30 12:28:34;;;;;;;8.20;6.55;;;;;;;;;;5101688;27;20031;-77
2022/10/30 12:30:59;;;;;;;7.82;6.18;;;;;;;;;;5105234;27;20019;-78
2022/10/30 12:33:45;;;;;;;8.68;6.82;;;;;;;;;;5105730;27;20509;-77
2022/10/30 12:36:17;;;;;;;10.90;7.45;;;;;;;;;;5110924;27;20047;-77
2022/10/30 12:38:46;;;;;;;10.20;6.70;;;;;;;;;;5121667;27;20055;-75
2022/10/30 12:41:26;;;;;;;7.95;7.15;;;;;;;;;;5122439;27;20019;-76
2022/10/30 12:43:56;;;;;;;54.55;43.80;;;;;;;;;;5122954;27;20027;-78
2022/10/30 12:46:32;;;;;;;16.17;14.45;;;;;;;;;;5122624;27;20039;-77
2022/10/30 12:49:12;;;;;;;28.90;26.10;;;;;;;;;;5123897;27;20027;-76
2022/10/30 12:51:42;;;;;;;11.57;10.05;;;;;;;;;;5124453;27;20407;-77
2022/10/30 12:54:16;;;;;;;15.93;9.90;;;;;;;;;;5123624;27;20019;-77
2022/10/30 12:56:43;;;;;;;11.65;9.32;;;;;;;;;;5121607;27;20031;-75
2022/10/30 12:59:21;;;;;;;11.23;9.90;;;;;;;;;;5123084;27;20027;-75
2022/10/30 13:02:00;;;;;;;14.27;10.80;;;;;;;;;;5123999;27;20026;-76
2022/10/30 13:04:27;;;;;;;12.65;10.55;;;;;;;;;;5123245;27;20354;-77
2022/10/30 13:06:57;;;;;;;14.13;9.98;;;;;;;;;;5123256;27;20438;-78
2022/10/30 13:09:28;;;;;;;14.95;11.68;;;;;;;;;;5123662;27;20031;-76
2022/10/30 13:12:02;;;;;;;11.27;9.98;;;;;;;;;;5123974;27;20023;-76
2022/10/30 13:14:39;;;;;;;12.60;10.70;;;;;;;;;;5123335;27;20438;-78
2022/10/30 13:17:09;;;;;;;9.13;7.95;;;;;;;;;;5124144;27;20058;-78
2022/10/30 13:19:34;;;;;;;9.85;7.93;;;;;;;;;;5123791;27;20043;-76
2022/10/30 13:22:02;;;;;;;9.77;8.57;;;;;;;;;;5124292;27;20182;-78
2022/10/30 13:24:34;;;;;;;14.18;8.95;;;;;;;;;;5122647;27;20087;-77
2022/10/30 13:27:14;;;;;;;18.67;14.05;;;;;;;;;;5124357;27;20027;-78
2022/10/30 13:29:43;;;;;;;35.97;25.90;;;;;;;;;;5122099;27;20027;-78
2022/10/30 13:32:27;;;;;;;29.80;23.02;;;;;;;;;;5122432;27;20046;-77
2022/10/30 13:35:11;;;;;;;28.17;20.17;;;;;;;;;;5104484;27;20035;-77
2022/10/30 13:37:55;;;;;;;26.83;20.83;;;;;;;;;;5123826;27;20083;-76
2022/10/30 13:40:34;;;;;;;22.15;18.05;;;;;;;;;;5122705;27;20035;-77
2022/10/30 13:42:59;;;;;;;;;;;;;;;;;;5123668;27;20055;-77
2022/10/30 13:45:45;;;;;;;14.13;10.70;;;;;;;;;;5122799;27;19951;-78
2022/10/30 13:48:26;;;;;;;10.30;9.25;;;;;;;;;;5109742;27;20474;-79
2022/10/30 13:50:57;;;;;;;14.63;8.40;;;;;;;;;;5122505;27;21042;-75
2022/10/30 13:53:25;;;;;;;10.75;9.55;;;;;;;;;;5122929;27;20028;-76
2022/10/30 13:55:50;;;;;;;12.95;10.20;;;;;;;;;;5123589;27;20060;-77
2022/10/30 13:58:16;;;;;;;12.43;10.13;;;;;;;;;;5121721;27;20123;-75
2022/10/30 14:00:41;;;;;;;14.20;8.57;;;;;;;;;;5123534;27;20026;-75
2022/10/30 14:03:38;;;;;;;10.95;8.88;;;;;;;;;;5122991;27;20030;-75
2022/10/30 14:06:04;;;;;;;20.55;17.70;;;;;;;;;;5039576;28;20171;-75
2022/10/30 14:08:35;;;;;;;9.43;8.45;;;;;;;;;;5035892;28;20111;-75
2022/10/30 14:11:00;;;;;;;24.98;22.52;;;;;;;;;;5029073;28;20025;-75
2022/10/30 14:13:27;;;;;;;15.55;13.95;;;;;;;;;;5036069;28;20029;-79
2022/10/30 14:15:59;;;;;;;14.32;13.00;;;;;;;;;;5026695;28;20049;-76
2022/10/30 14:18:27;;;;;;;14.15;12.32;;;;;;;;;;5025383;28;20483;-76
2022/10/30 14:20:54;;;;;;;35.90;32.60;;;;;;;;;;5024479;28;20083;-75
2022/10/30 14:23:31;;;;;;;27.58;25.13;;;;;;;;;;5023300;28;20037;-76
2022/10/30 14:26:05;;;;;;;29.33;26.48;;;;;;;;;;5022089;28;20180;-76
2022/10/30 14:28:32;;;;;;;23.02;20.92;;;;;;;;;;5020729;28;20045;-75
2022/10/30 14:31:03;;;;;;;30.88;28.05;;;;;;;;;;5022983;28;20495;-78